Lockbourne, Ohio
Current Conditions -  °F | °C
As of 12:55 PM on Saturday 25 Oct 2014 (Local Time) from KLCK Reporting Station
Scattered Clouds Scattered Clouds  
Wind Chill: 65°   Ceiling: Unl
Heat Index: 65°   Visibility: 10mi
Dew Point: 53°   Wind: 14mph
Humidity: 66%   Direction: 230°SW
Pressure: 29.91"   Gusts: 21mph
Location:  39.81°N, 82.97°W
Report Text: KLCK 251655Z AUTO 23012G18KT 10SM SCT030 SCT037 18/12 A2991 RMK AO2 T01810116
Loading
Personal Weather Stations






























Interactive Weather Map New forecast layout! Learn more

10-Day Weather Forecast

Advertisements
Track Severe Weather on mobile